Time,TemperatureF,DewpointF,PressureIn,WindDirection,WindDirectionDegrees,WindSpeedMPH,WindSpeedGustMPH,Humidity,HourlyPrecipIn,Conditions,Clouds,dailyrainin,SolarRadiationWatts/m^2,SoftwareType,DateUTC
2013-04-28 00:03:00,67.0,-99.9,-100.00,East,81,2.0,6.0,77,0.00,,,0.00,0.000000,,2013-04-28 04:03:00,
2013-04-28 00:11:00,64.0,61.0,-100.00,NNE,23,0.0,4.0,89,0.00,,,0.00,0.000000,,2013-04-28 04:11:00,
2013-04-28 00:32:00,64.0,61.0,-100.00,NNE,23,0.0,4.0,89,0.00,,,0.00,0.000000,,2013-04-28 04:32:00,
2013-04-28 00:43:00,64.0,61.0,-100.00,NNE,23,0.0,4.0,89,0.00,,,0.00,0.000000,,2013-04-28 04:43:00,
2013-04-28 00:53:00,64.0,61.0,-100.00,NNE,23,0.0,4.0,89,0.00,,,0.00,0.000000,,2013-04-28 04:53:00,
2013-04-28 01:02:00,64.0,61.0,-100.00,NNE,23,0.0,4.0,89,0.00,,,0.00,0.000000,,2013-04-28 05:02:00,
2013-04-28 01:11:00,64.0,61.0,-100.00,NE,45,1.0,3.0,91,0.00,,,0.00,0.000000,,2013-04-28 05:11:00,
2013-04-28 01:32:00,64.0,61.0,-100.00,NE,45,1.0,3.0,91,0.00,,,0.00,0.000000,,2013-04-28 05:32:00,
2013-04-28 01:42:00,64.0,61.0,-100.00,NE,45,1.0,3.0,91,0.00,,,0.00,0.000000,,2013-04-28 05:42:00,
2013-04-28 01:52:00,64.0,61.0,-100.00,NE,45,1.0,3.0,91,0.00,,,0.00,0.000000,,2013-04-28 05:52:00,
2013-04-28 02:01:00,64.0,61.0,-100.00,NE,45,1.0,3.0,91,0.00,,,0.00,0.000000,,2013-04-28 06:01:00,
2013-04-28 02:11:00,64.0,62.0,-100.00,NE,51,1.0,4.0,92,0.00,,,-99.99,0.000000,,2013-04-28 06:11:00,
2013-04-28 02:32:00,64.0,62.0,-100.00,NE,51,1.0,4.0,92,0.00,,,-99.99,0.000000,,2013-04-28 06:32:00,
2013-04-28 02:42:00,64.0,62.0,-100.00,NE,51,1.0,4.0,92,0.00,,,-99.99,0.000000,,2013-04-28 06:42:00,
2013-04-28 02:52:00,64.0,62.0,-100.00,NE,51,1.0,4.0,92,0.00,,,-99.99,0.000000,,2013-04-28 06:52:00,
2013-04-28 03:02:00,64.0,62.0,-100.00,NE,51,1.0,4.0,92,0.00,,,-99.99,0.000000,,2013-04-28 07:02:00,
2013-04-28 03:11:00,64.0,62.0,-100.00,East,83,1.0,4.0,93,0.00,,,0.00,0.000000,,2013-04-28 07:11:00,
2013-04-28 03:42:00,64.0,62.0,-100.00,East,83,1.0,4.0,93,0.00,,,0.00,0.000000,,2013-04-28 07:42:00,
2013-04-28 03:52:00,64.0,62.0,-100.00,East,83,1.0,4.0,93,0.00,,,0.00,0.000000,,2013-04-28 07:52:00,
2013-04-28 04:02:00,64.0,62.0,-100.00,East,83,1.0,4.0,93,0.00,,,0.00,0.000000,,2013-04-28 08:02:00,
2013-04-28 04:11:00,62.0,61.0,-100.00,NE,43,0.0,2.0,95,0.00,,,0.00,0.000000,,2013-04-28 08:11:00,
2013-04-28 04:32:00,62.0,61.0,-100.00,NE,43,0.0,2.0,95,0.00,,,0.00,0.000000,,2013-04-28 08:32:00,
2013-04-28 04:42:00,62.0,61.0,-100.00,NE,43,0.0,2.0,95,0.00,,,0.00,0.000000,,2013-04-28 08:42:00,
2013-04-28 04:52:00,62.0,61.0,-100.00,NE,43,0.0,2.0,95,0.00,,,0.00,0.000000,,2013-04-28 08:52:00,
2013-04-28 05:01:00,62.0,61.0,-100.00,NE,43,0.0,2.0,95,0.00,,,0.00,0.000000,,2013-04-28 09:01:00,
2013-04-28 05:11:00,62.0,61.0,-100.00,NE,56,1.0,3.0,96,0.00,,,0.00,0.000000,,2013-04-28 09:11:00,
2013-04-28 05:33:00,62.0,61.0,-100.00,NE,56,1.0,3.0,96,0.00,,,0.00,0.000000,,2013-04-28 09:33:00,
2013-04-28 05:42:00,62.0,61.0,-100.00,NE,56,1.0,3.0,96,0.00,,,0.00,0.000000,,2013-04-28 09:42:00,
2013-04-28 05:53:00,62.0,61.0,-100.00,NE,56,1.0,3.0,96,0.00,,,0.00,0.000000,,2013-04-28 09:53:00,
2013-04-28 06:03:00,62.0,61.0,-100.00,NE,56,1.0,3.0,96,0.00,,,0.00,0.000000,,2013-04-28 10:03:00,
2013-04-28 06:11:00,63.0,62.0,-100.00,ENE,57,2.0,5.0,95,0.00,,,0.00,0.000000,,2013-04-28 10:11:00,
2013-04-28 06:32:00,63.0,62.0,-100.00,ENE,57,2.0,5.0,95,0.00,,,0.00,0.000000,,2013-04-28 10:32:00,
2013-04-28 06:42:00,63.0,62.0,-100.00,ENE,57,2.0,5.0,95,0.00,,,0.00,0.000000,,2013-04-28 10:42:00,
2013-04-28 06:53:00,63.0,62.0,-100.00,ENE,57,2.0,5.0,95,0.00,,,0.00,0.000000,,2013-04-28 10:53:00,
2013-04-28 07:02:00,63.0,62.0,-100.00,ENE,57,2.0,5.0,95,0.00,,,0.00,0.000000,,2013-04-28 11:02:00,
2013-04-28 07:11:00,62.0,60.0,-100.00,East,90,0.0,4.0,93,0.00,,,0.00,3.000000,,2013-04-28 11:11:00,
2013-04-28 07:32:00,62.0,60.0,-100.00,East,90,0.0,4.0,93,0.00,,,0.00,3.000000,,2013-04-28 11:32:00,
2013-04-28 07:42:00,62.0,60.0,-100.00,East,90,0.0,4.0,93,0.00,,,0.00,3.000000,,2013-04-28 11:42:00,
2013-04-28 07:52:00,62.0,60.0,-100.00,East,90,0.0,4.0,93,0.00,,,0.00,3.000000,,2013-04-28 11:52:00,
2013-04-28 08:02:00,62.0,60.0,-100.00,East,90,0.0,4.0,93,0.00,,,0.00,3.000000,,2013-04-28 12:02:00,
2013-04-28 08:11:00,67.0,62.0,-100.00,East,86,3.0,8.0,85,0.00,,,0.00,75.000000,,2013-04-28 12:11:00,
2013-04-28 08:42:00,67.0,62.0,-100.00,East,86,3.0,8.0,85,0.00,,,0.00,75.000000,,2013-04-28 12:42:00,
2013-04-28 08:52:00,67.0,62.0,-100.00,East,86,3.0,8.0,85,0.00,,,0.00,75.000000,,2013-04-28 12:52:00,
2013-04-28 09:02:00,67.0,62.0,-100.00,East,86,3.0,8.0,85,0.00,,,0.00,75.000000,,2013-04-28 13:02:00,
2013-04-28 09:11:00,74.0,65.0,-100.00,ENE,75,4.0,9.0,74,0.00,,,0.00,102.000000,,2013-04-28 13:11:00,
2013-04-28 09:32:00,74.0,65.0,-100.00,ENE,75,4.0,9.0,74,0.00,,,0.00,102.000000,,2013-04-28 13:32:00,
2013-04-28 09:42:00,74.0,65.0,-100.00,ENE,75,4.0,9.0,74,0.00,,,0.00,102.000000,,2013-04-28 13:42:00,
2013-04-28 09:52:00,74.0,65.0,-100.00,ENE,75,4.0,9.0,74,0.00,,,0.00,102.000000,,2013-04-28 13:52:00,
2013-04-28 10:02:00,74.0,65.0,-100.00,ENE,75,4.0,9.0,74,0.00,,,0.00,102.000000,,2013-04-28 14:02:00,
2013-04-28 10:11:00,80.0,65.0,-100.00,East,80,6.0,11.0,60,0.00,,,0.00,504.000000,,2013-04-28 14:11:00,
2013-04-28 10:32:00,80.0,65.0,-100.00,East,80,6.0,11.0,60,0.00,,,0.00,504.000000,,2013-04-28 14:32:00,
2013-04-28 10:42:00,80.0,65.0,-100.00,East,80,6.0,11.0,60,0.00,,,0.00,504.000000,,2013-04-28 14:42:00,
2013-04-28 10:52:00,80.0,65.0,-100.00,East,80,6.0,11.0,60,0.00,,,0.00,504.000000,,2013-04-28 14:52:00,
2013-04-28 11:02:00,80.0,65.0,-100.00,East,80,6.0,11.0,60,0.00,,,0.00,504.000000,,2013-04-28 15:02:00,
2013-04-28 11:11:00,83.0,64.0,-100.00,East,85,5.0,11.0,53,0.00,,,0.00,660.000000,,2013-04-28 15:11:00,
2013-04-28 11:33:00,83.0,64.0,-100.00,East,85,5.0,11.0,53,0.00,,,0.00,660.000000,,2013-04-28 15:33:00,
2013-04-28 11:43:00,83.0,64.0,-100.00,East,85,5.0,11.0,53,0.00,,,0.00,660.000000,,2013-04-28 15:43:00,
2013-04-28 11:53:00,83.0,64.0,-100.00,East,85,5.0,11.0,53,0.00,,,0.00,660.000000,,2013-04-28 15:53:00,
2013-04-28 12:03:00,83.0,64.0,-100.00,East,85,5.0,11.0,53,0.00,,,0.00,660.000000,,2013-04-28 16:03:00,
2013-04-28 12:11:00,85.0,64.0,-100.00,East,92,3.0,12.0,50,0.00,,,0.00,670.000000,,2013-04-28 16:11:00,
2013-04-28 12:43:00,85.0,64.0,-100.00,East,92,3.0,12.0,50,0.00,,,0.00,670.000000,,2013-04-28 16:43:00,
2013-04-28 12:52:00,85.0,64.0,-100.00,East,92,3.0,12.0,50,0.00,,,0.00,670.000000,,2013-04-28 16:52:00,
2013-04-28 13:02:00,85.0,64.0,-100.00,East,92,3.0,12.0,50,0.00,,,0.00,670.000000,,2013-04-28 17:02:00,
2013-04-28 13:11:00,87.0,64.0,-100.00,ENE,78,4.0,13.0,46,0.00,,,0.00,670.000000,,2013-04-28 17:11:00,
2013-04-28 13:32:00,87.0,64.0,-100.00,ENE,78,4.0,13.0,46,0.00,,,0.00,670.000000,,2013-04-28 17:32:00,
2013-04-28 13:43:00,87.0,64.0,-100.00,ENE,78,4.0,13.0,46,0.00,,,0.00,670.000000,,2013-04-28 17:43:00,
2013-04-28 13:52:00,87.0,64.0,-100.00,ENE,78,4.0,13.0,46,0.00,,,0.00,670.000000,,2013-04-28 17:52:00,
2013-04-28 14:02:00,87.0,64.0,-100.00,ENE,78,4.0,13.0,46,0.00,,,0.00,670.000000,,2013-04-28 18:02:00,
2013-04-28 14:11:00,86.0,60.0,-100.00,ENE,72,5.0,11.0,42,0.00,,,0.00,712.000000,,2013-04-28 18:11:00,
2013-04-28 14:42:00,86.0,60.0,-100.00,ENE,72,5.0,11.0,42,0.00,,,0.00,712.000000,,2013-04-28 18:42:00,
2013-04-28 14:52:00,86.0,60.0,-100.00,ENE,72,5.0,11.0,42,0.00,,,0.00,712.000000,,2013-04-28 18:52:00,
2013-04-28 15:02:00,86.0,60.0,-100.00,ENE,72,5.0,11.0,42,0.00,,,0.00,712.000000,,2013-04-28 19:02:00,
2013-04-28 15:11:00,85.0,60.0,-100.00,East,86,4.0,10.0,43,0.00,,,0.00,564.000000,,2013-04-28 19:11:00,
2013-04-28 15:32:00,85.0,60.0,-100.00,East,86,4.0,10.0,43,0.00,,,0.00,564.000000,,2013-04-28 19:32:00,
2013-04-28 15:42:00,85.0,60.0,-100.00,East,86,4.0,10.0,43,0.00,,,0.00,564.000000,,2013-04-28 19:42:00,
2013-04-28 15:52:00,85.0,60.0,-100.00,East,86,4.0,10.0,43,0.00,,,0.00,564.000000,,2013-04-28 19:52:00,
2013-04-28 16:02:00,85.0,60.0,-100.00,East,86,4.0,10.0,43,0.00,,,0.00,564.000000,,2013-04-28 20:02:00,
2013-04-28 16:11:00,87.0,62.0,-100.00,East,80,5.0,14.0,43,0.00,,,0.00,537.000000,,2013-04-28 20:11:00,
2013-04-28 16:33:00,87.0,62.0,-100.00,East,80,5.0,14.0,43,0.00,,,0.00,537.000000,,2013-04-28 20:33:00,
2013-04-28 16:42:00,87.0,62.0,-100.00,East,80,5.0,14.0,43,0.00,,,0.00,537.000000,,2013-04-28 20:42:00,
2013-04-28 16:52:00,87.0,62.0,-100.00,East,80,5.0,14.0,43,0.00,,,0.00,537.000000,,2013-04-28 20:52:00,
2013-04-28 17:01:00,87.0,62.0,-100.00,East,80,5.0,14.0,43,0.00,,,0.00,537.000000,,2013-04-28 21:01:00,
2013-04-28 17:11:00,86.0,61.0,-100.00,East,81,5.0,11.0,43,0.00,,,0.00,569.000000,,2013-04-28 21:11:00,
2013-04-28 17:43:00,86.0,61.0,-100.00,East,81,5.0,11.0,43,0.00,,,0.00,569.000000,,2013-04-28 21:43:00,
2013-04-28 17:53:00,86.0,61.0,-100.00,East,81,5.0,11.0,43,0.00,,,0.00,569.000000,,2013-04-28 21:53:00,
2013-04-28 18:03:00,86.0,61.0,-100.00,East,81,5.0,11.0,43,0.00,,,0.00,569.000000,,2013-04-28 22:03:00,
2013-04-28 18:11:00,83.0,61.0,-100.00,East,82,4.0,12.0,47,0.00,,,0.00,224.000000,,2013-04-28 22:11:00,
2013-04-28 18:42:00,83.0,61.0,-100.00,East,82,4.0,12.0,47,0.00,,,0.00,224.000000,,2013-04-28 22:42:00,
2013-04-28 18:52:00,83.0,61.0,-100.00,East,82,4.0,12.0,47,0.00,,,0.00,224.000000,,2013-04-28 22:52:00,
2013-04-28 19:02:00,83.0,61.0,-100.00,East,82,4.0,12.0,47,0.00,,,0.00,224.000000,,2013-04-28 23:02:00,
2013-04-28 19:11:00,79.0,60.0,-100.00,East,83,3.0,8.0,53,0.00,,,0.00,67.000000,,2013-04-28 23:11:00,
2013-04-28 19:42:00,79.0,60.0,-100.00,East,83,3.0,8.0,53,0.00,,,0.00,67.000000,,2013-04-28 23:42:00,
2013-04-28 19:52:00,79.0,60.0,-100.00,East,83,3.0,8.0,53,0.00,,,0.00,67.000000,,2013-04-28 23:52:00,
2013-04-28 20:01:00,79.0,60.0,-100.00,East,83,3.0,8.0,53,0.00,,,0.00,67.000000,,2013-04-29 00:01:00,
2013-04-28 21:11:00,69.0,61.0,-100.00,ENE,69,0.0,4.0,77,-99.99,,,0.00,0.000000,,2013-04-29 01:11:00,
2013-04-28 21:32:00,69.0,61.0,-100.00,ENE,69,0.0,4.0,77,-99.99,,,0.00,0.000000,,2013-04-29 01:32:00,
2013-04-28 21:42:00,69.0,61.0,-100.00,ENE,69,0.0,4.0,77,-99.99,,,0.00,0.000000,,2013-04-29 01:42:00,
2013-04-28 21:52:00,69.0,61.0,-100.00,ENE,69,0.0,4.0,77,-99.99,,,0.00,0.000000,,2013-04-29 01:52:00,
2013-04-28 22:02:00,69.0,61.0,-100.00,ENE,69,0.0,4.0,77,-99.99,,,0.00,0.000000,,2013-04-29 02:02:00,
2013-04-28 22:11:00,66.0,62.0,-100.00,ESE,108,0.0,3.0,86,0.00,,,0.00,0.000000,,2013-04-29 02:11:00,
2013-04-28 22:42:00,66.0,62.0,-100.00,ESE,108,0.0,3.0,86,0.00,,,0.00,0.000000,,2013-04-29 02:42:00,
2013-04-28 22:52:00,66.0,62.0,-100.00,ESE,108,0.0,3.0,86,0.00,,,0.00,0.000000,,2013-04-29 02:52:00,
2013-04-28 23:01:00,66.0,62.0,-100.00,ESE,108,0.0,3.0,86,0.00,,,0.00,0.000000,,2013-04-29 03:01:00,
2013-04-28 23:11:00,63.0,61.0,-100.00,ENE,60,0.0,0.0,93,0.00,,,0.00,0.000000,,2013-04-29 03:11:00,
2013-04-28 23:33:00,63.0,61.0,-100.00,ENE,60,0.0,0.0,93,0.00,,,0.00,0.000000,,2013-04-29 03:33:00,
2013-04-28 23:43:00,63.0,61.0,-100.00,ENE,60,0.0,0.0,93,0.00,,,0.00,0.000000,,2013-04-29 03:43:00,
2013-04-28 23:53:00,63.0,61.0,-100.00,ENE,60,0.0,0.0,93,0.00,,,0.00,0.000000,,2013-04-29 03:53:00,